sensor_id;sensor_type;location;lat;lon;timestamp;temperature;humidity
47514;DHT22;33951;51.988;5.910;2023-08-12T04:06:02;22.50;99.90
47514;DHT22;33951;51.988;5.910;2023-08-12T04:12:11;22.50;99.90
47514;DHT22;33951;51.988;5.910;2023-08-12T04:15:16;22.60;99.90
47514;DHT22;33951;51.988;5.910;2023-08-12T04:18:02;22.50;99.90
47514;DHT22;33951;51.988;5.910;2023-08-12T04:20:53;22.60;99.90
47514;DHT22;33951;51.988;5.910;2023-08-12T04:27:11;22.50;99.90
47514;DHT22;33951;51.988;5.910;2023-08-12T04:29:56;22.50;99.90
47514;DHT22;33951;51.988;5.910;2023-08-12T04:39:43;22.50;99.90
47514;DHT22;33951;51.988;5.910;2023-08-12T04:52:06;22.20;99.90
47514;DHT22;33951;51.988;5.910;2023-08-12T05:08:34;22.50;99.90
47514;DHT22;33951;51.988;5.910;2023-08-12T05:11:40;22.30;99.90
47514;DHT22;33951;51.988;5.910;2023-08-12T05:24:21;22.10;99.90
47514;DHT22;33951;51.988;5.910;2023-08-12T05:27:33;22.10;99.90
47514;DHT22;33951;51.988;5.910;2023-08-12T05:30:41;22.10;99.90
47514;DHT22;33951;51.988;5.910;2023-08-12T05:36:51;22.10;99.90
47514;DHT22;33951;51.988;5.910;2023-08-12T05:39:57;21.90;99.90
47514;DHT22;33951;51.988;5.910;2023-08-12T05:46:09;22.00;99.90
47514;DHT22;33951;51.988;5.910;2023-08-12T05:55:22;21.50;99.90
47514;DHT22;33951;51.988;5.910;2023-08-12T06:07:42;21.20;99.90
47514;DHT22;33951;51.988;5.910;2023-08-12T06:10:48;21.10;99.90
47514;DHT22;33951;51.988;5.910;2023-08-12T06:13:54;21.10;99.90
47514;DHT22;33951;51.988;5.910;2023-08-12T06:16:49;21.00;99.90
47514;DHT22;33951;51.988;5.910;2023-08-12T06:19:41;21.00;99.90
47514;DHT22;33951;51.988;5.910;2023-08-12T06:32:54;20.90;99.90
47514;DHT22;33951;51.988;5.910;2023-08-12T06:35:59;20.70;99.90
47514;DHT22;33951;51.988;5.910;2023-08-12T06:38:52;20.50;99.90
47514;DHT22;33951;51.988;5.910;2023-08-12T06:41:38;20.30;99.90
47514;DHT22;33951;51.988;5.910;2023-08-12T06:44:12;20.10;99.90
47514;DHT22;33951;51.988;5.910;2023-08-12T06:47:01;20.00;99.90
47514;DHT22;33951;51.988;5.910;2023-08-12T06:52:39;19.90;99.90
47514;DHT22;33951;51.988;5.910;2023-08-12T06:55:53;19.90;99.90
47514;DHT22;33951;51.988;5.910;2023-08-12T07:01:42;20.30;99.90
47514;DHT22;33951;51.988;5.910;2023-08-12T07:04:17;20.30;99.90
47514;DHT22;33951;51.988;5.910;2023-08-12T07:10:02;20.30;99.90
47514;DHT22;33951;51.988;5.910;2023-08-12T07:13:06;20.40;99.90
47514;DHT22;33951;51.988;5.910;2023-08-12T07:15:46;20.50;99.90
47514;DHT22;33951;51.988;5.910;2023-08-12T07:25:07;20.80;99.90
47514;DHT22;33951;51.988;5.910;2023-08-12T07:28:01;20.80;99.90
47514;DHT22;33951;51.988;5.910;2023-08-12T07:34:01;20.70;99.90
47514;DHT22;33951;51.988;5.910;2023-08-12T07:37:29;20.90;99.90
47514;DHT22;33951;51.988;5.910;2023-08-12T07:40:32;21.00;99.90
47514;DHT22;33951;51.988;5.910;2023-08-12T07:43:23;21.10;99.90
47514;DHT22;33951;51.988;5.910;2023-08-12T07:59:36;21.30;99.90
47514;DHT22;33951;51.988;5.910;2023-08-12T08:02:22;21.20;99.90
47514;DHT22;33951;51.988;5.910;2023-08-12T08:08:35;21.10;99.90
47514;DHT22;33951;51.988;5.910;2023-08-12T08:14:04;21.10;99.90
47514;DHT22;33951;51.988;5.910;2023-08-12T08:16:50;21.10;99.90
47514;DHT22;33951;51.988;5.910;2023-08-12T08:22:30;21.10;99.90
47514;DHT22;33951;51.988;5.910;2023-08-12T08:24:58;21.00;99.90
47514;DHT22;33951;51.988;5.910;2023-08-12T08:31:15;20.90;99.90
47514;DHT22;33951;51.988;5.910;2023-08-12T08:34:01;21.00;99.90
47514;DHT22;33951;51.988;5.910;2023-08-12T08:43:10;20.80;99.90
47514;DHT22;33951;51.988;5.910;2023-08-12T08:49:35;20.70;99.90
47514;DHT22;33951;51.988;5.910;2023-08-12T08:52:42;20.60;99.90
47514;DHT22;33951;51.988;5.910;2023-08-12T08:59:27;20.40;99.90
47514;DHT22;33951;51.988;5.910;2023-08-12T09:02:12;20.40;99.90
47514;DHT22;33951;51.988;5.910;2023-08-12T09:04:46;20.30;99.90
47514;DHT22;33951;51.988;5.910;2023-08-12T09:14:02;20.40;99.90
47514;DHT22;33951;51.988;5.910;2023-08-12T09:16:41;20.50;99.90
47514;DHT22;33951;51.988;5.910;2023-08-12T09:19:47;20.60;99.90
47514;DHT22;33951;51.988;5.910;2023-08-12T09:22:36;20.70;99.90
47514;DHT22;33951;51.988;5.910;2023-08-12T09:25:42;20.70;99.90
47514;DHT22;33951;51.988;5.910;2023-08-12T09:32:32;20.50;99.90
47514;DHT22;33951;51.988;5.910;2023-08-12T09:35:54;20.60;99.90
47514;DHT22;33951;51.988;5.910;2023-08-12T09:38:52;20.50;99.90
47514;DHT22;33951;51.988;5.910;2023-08-12T09:42:11;20.40;99.90
47514;DHT22;33951;51.988;5.910;2023-08-12T09:48:21;20.70;99.90
47514;DHT22;33951;51.988;5.910;2023-08-12T09:51:38;20.80;99.90
47514;DHT22;33951;51.988;5.910;2023-08-12T09:57:41;20.90;99.90
47514;DHT22;33951;51.988;5.910;2023-08-12T10:00:33;21.00;99.90
47514;DHT22;33951;51.988;5.910;2023-08-12T10:03:39;20.90;99.90
47514;DHT22;33951;51.988;5.910;2023-08-12T10:06:52;21.10;99.90
47514;DHT22;33951;51.988;5.910;2023-08-12T10:09:51;21.20;99.90
47514;DHT22;33951;51.988;5.910;2023-08-12T10:13:02;21.10;99.90
47514;DHT22;33951;51.988;5.910;2023-08-12T10:16:33;21.10;99.90
47514;DHT22;33951;51.988;5.910;2023-08-12T10:19:10;21.10;99.90
47514;DHT22;33951;51.988;5.910;2023-08-12T10:23:37;21.40;99.90
47514;DHT22;33951;51.988;5.910;2023-08-12T10:29:29;21.70;99.90
47514;DHT22;33951;51.988;5.910;2023-08-12T10:32:49;21.50;99.90
47514;DHT22;33951;51.988;5.910;2023-08-12T10:58:14;20.40;99.90
47514;DHT22;33951;51.988;5.910;2023-08-12T11:01:32;20.50;99.90
47514;DHT22;33951;51.988;5.910;2023-08-12T11:04:36;20.80;99.90
47514;DHT22;33951;51.988;5.910;2023-08-12T11:10:36;20.60;99.90
47514;DHT22;33951;51.988;5.910;2023-08-12T11:13:23;20.80;99.90
47514;DHT22;33951;51.988;5.910;2023-08-12T11:19:48;21.10;99.90
47514;DHT22;33951;51.988;5.910;2023-08-12T11:22:20;21.40;99.90
47514;DHT22;33951;51.988;5.910;2023-08-12T11:25:12;21.60;99.90
47514;DHT22;33951;51.988;5.910;2023-08-12T11:28:13;21.70;99.90
47514;DHT22;33951;51.988;5.910;2023-08-12T11:36:19;21.80;99.90
47514;DHT22;33951;51.988;5.910;2023-08-12T11:42:16;22.00;99.90
47514;DHT22;33951;51.988;5.910;2023-08-12T11:45:13;22.00;99.90
47514;DHT22;33951;51.988;5.910;2023-08-12T11:48:09;22.40;99.90
47514;DHT22;33951;51.988;5.910;2023-08-12T11:50:38;22.30;99.90
47514;DHT22;33951;51.988;5.910;2023-08-12T11:53:07;22.30;99.90
47514;DHT22;33951;51.988;5.910;2023-08-12T11:58:48;22.20;99.90
47514;DHT22;33951;51.988;5.910;2023-08-12T12:01:18;22.40;99.90
47514;DHT22;33951;51.988;5.910;2023-08-12T12:03:53;22.40;99.90
47514;DHT22;33951;51.988;5.910;2023-08-12T12:06:38;22.60;99.90
47514;DHT22;33951;51.988;5.910;2023-08-12T12:09:19;22.70;99.90
47514;DHT22;33951;51.988;5.910;2023-08-12T12:12:09;22.50;99.90
47514;DHT22;33951;51.988;5.910;2023-08-12T12:14:50;22.70;99.90
47514;DHT22;33951;51.988;5.910;2023-08-12T12:17:23;22.80;99.90
47514;DHT22;33951;51.988;5.910;2023-08-12T12:19:55;22.90;99.90
47514;DHT22;33951;51.988;5.910;2023-08-12T12:22:31;23.20;99.90
47514;DHT22;33951;51.988;5.910;2023-08-12T12:25:10;23.20;99.90
47514;DHT22;33951;51.988;5.910;2023-08-12T12:27:49;23.30;99.90
47514;DHT22;33951;51.988;5.910;2023-08-12T12:30:38;23.50;99.90
47514;DHT22;33951;51.988;5.910;2023-08-12T12:33:22;23.80;99.90
47514;DHT22;33951;51.988;5.910;2023-08-12T12:36:09;23.80;99.90
47514;DHT22;33951;51.988;5.910;2023-08-12T12:41:41;24.10;99.90
47514;DHT22;33951;51.988;5.910;2023-08-12T12:44:16;24.40;99.90
47514;DHT22;33951;51.988;5.910;2023-08-12T12:49:59;24.10;99.90
47514;DHT22;33951;51.988;5.910;2023-08-12T12:52:25;23.80;99.90
47514;DHT22;33951;51.988;5.910;2023-08-12T12:55:01;23.80;99.90
47514;DHT22;33951;51.988;5.910;2023-08-12T12:58:01;24.00;99.90
47514;DHT22;33951;51.988;5.910;2023-08-12T13:00:58;24.10;99.90
47514;DHT22;33951;51.988;5.910;2023-08-12T13:09:29;24.00;99.90
47514;DHT22;33951;51.988;5.910;2023-08-12T13:11:59;23.70;99.90
47514;DHT22;33951;51.988;5.910;2023-08-12T13:14:44;23.50;99.90
47514;DHT22;33951;51.988;5.910;2023-08-12T13:23:26;23.90;99.90
47514;DHT22;33951;51.988;5.910;2023-08-12T13:26:00;23.90;99.90
47514;DHT22;33951;51.988;5.910;2023-08-12T13:29:21;24.10;99.90
47514;DHT22;33951;51.988;5.910;2023-08-12T13:32:05;24.50;99.90
47514;DHT22;33951;51.988;5.910;2023-08-12T13:35:08;24.40;99.90
47514;DHT22;33951;51.988;5.910;2023-08-12T13:37:59;24.40;99.90
47514;DHT22;33951;51.988;5.910;2023-08-12T13:40:51;24.70;99.90
47514;DHT22;33951;51.988;5.910;2023-08-12T13:46:47;25.20;99.90
47514;DHT22;33951;51.988;5.910;2023-08-12T13:49:56;25.20;99.90
47514;DHT22;33951;51.988;5.910;2023-08-12T13:53:18;25.40;99.90
47514;DHT22;33951;51.988;5.910;2023-08-12T13:56:00;25.70;99.90
47514;DHT22;33951;51.988;5.910;2023-08-12T13:58:35;26.00;99.90
47514;DHT22;33951;51.988;5.910;2023-08-12T14:11:31;26.80;99.90
47514;DHT22;33951;51.988;5.910;2023-08-12T14:14:09;27.20;99.90
47514;DHT22;33951;51.988;5.910;2023-08-12T14:34:20;26.70;99.90
47514;DHT22;33951;51.988;5.910;2023-08-12T14:40:29;26.90;99.90
47514;DHT22;33951;51.988;5.910;2023-08-12T14:43:25;26.70;99.90
47514;DHT22;33951;51.988;5.910;2023-08-12T14:46:39;26.60;99.90
47514;DHT22;33951;51.988;5.910;2023-08-12T14:49:42;26.20;99.90
47514;DHT22;33951;51.988;5.910;2023-08-12T14:52:43;26.30;99.90
47514;DHT22;33951;51.988;5.910;2023-08-12T14:59:32;25.80;99.90
47514;DHT22;33951;51.988;5.910;2023-08-12T15:02:06;25.40;99.90
47514;DHT22;33951;51.988;5.910;2023-08-12T15:04:59;25.20;99.90
47514;DHT22;33951;51.988;5.910;2023-08-12T15:32:41;25.40;99.90
47514;DHT22;33951;51.988;5.910;2023-08-12T15:48:59;24.70;99.90
47514;DHT22;33951;51.988;5.910;2023-08-12T15:55:35;24.50;99.90
47514;DHT22;33951;51.988;5.910;2023-08-12T17:06:01;22.60;99.90
47514;DHT22;33951;51.988;5.910;2023-08-12T17:19:01;22.80;99.90
47514;DHT22;33951;51.988;5.910;2023-08-12T17:32:53;24.40;99.90
47514;DHT22;33951;51.988;5.910;2023-08-12T17:35:44;24.80;99.90
47514;DHT22;33951;51.988;5.910;2023-08-12T17:38:42;24.90;99.90
47514;DHT22;33951;51.988;5.910;2023-08-12T17:41:31;24.70;99.90
47514;DHT22;33951;51.988;5.910;2023-08-12T17:44:09;24.90;99.90
47514;DHT22;33951;51.988;5.910;2023-08-12T17:54:19;25.20;99.90
47514;DHT22;33951;51.988;5.910;2023-08-12T18:42:36;23.70;99.90
47514;DHT22;33951;51.988;5.910;2023-08-12T18:49:09;23.50;99.90
47514;DHT22;33951;51.988;5.910;2023-08-12T18:52:19;23.40;99.90
47514;DHT22;33951;51.988;5.910;2023-08-12T18:55:34;23.30;99.90
47514;DHT22;33951;51.988;5.910;2023-08-12T18:59:02;23.10;99.90
47514;DHT22;33951;51.988;5.910;2023-08-12T19:02:25;23.00;99.90
47514;DHT22;33951;51.988;5.910;2023-08-12T19:05:16;22.90;99.90
47514;DHT22;33951;51.988;5.910;2023-08-12T19:14:50;22.50;99.90
47514;DHT22;33951;51.988;5.910;2023-08-12T19:28:26;21.90;99.90
47514;DHT22;33951;51.988;5.910;2023-08-12T19:31:27;21.80;99.90
47514;DHT22;33951;51.988;5.910;2023-08-12T19:41:14;21.60;99.90
47514;DHT22;33951;51.988;5.910;2023-08-12T19:43:49;21.60;99.90
47514;DHT22;33951;51.988;5.910;2023-08-12T19:46:57;21.60;99.90
47514;DHT22;33951;51.988;5.910;2023-08-12T19:49:24;21.50;99.90
47514;DHT22;33951;51.988;5.910;2023-08-12T19:52:22;21.30;99.90
47514;DHT22;33951;51.988;5.910;2023-08-12T19:55:28;21.20;99.90
47514;DHT22;33951;51.988;5.910;2023-08-12T20:08:43;21.20;99.90
47514;DHT22;33951;51.988;5.910;2023-08-12T20:11:50;21.10;99.90
47514;DHT22;33951;51.988;5.910;2023-08-12T20:14:15;21.00;99.90
47514;DHT22;33951;51.988;5.910;2023-08-12T20:16:41;21.00;99.90
47514;DHT22;33951;51.988;5.910;2023-08-12T20:19:09;20.90;99.90
47514;DHT22;33951;51.988;5.910;2023-08-12T20:21:35;20.80;99.90
47514;DHT22;33951;51.988;5.910;2023-08-12T20:24:00;20.80;99.90
47514;DHT22;33951;51.988;5.910;2023-08-12T20:26:26;20.80;99.90
47514;DHT22;33951;51.988;5.910;2023-08-12T20:28:55;20.70;99.90
47514;DHT22;33951;51.988;5.910;2023-08-12T20:31:21;20.70;99.90
47514;DHT22;33951;51.988;5.910;2023-08-12T20:33:49;20.70;99.90
47514;DHT22;33951;51.988;5.910;2023-08-12T20:36:15;20.60;99.90
47514;DHT22;33951;51.988;5.910;2023-08-12T20:38:40;20.60;99.90
47514;DHT22;33951;51.988;5.910;2023-08-12T20:41:06;20.60;99.90
47514;DHT22;33951;51.988;5.910;2023-08-12T20:43:32;20.50;99.90
47514;DHT22;33951;51.988;5.910;2023-08-12T20:45:57;20.40;99.90
47514;DHT22;33951;51.988;5.910;2023-08-12T20:48:31;20.50;99.90
47514;DHT22;33951;51.988;5.910;2023-08-12T20:50:57;20.50;99.90
47514;DHT22;33951;51.988;5.910;2023-08-12T20:53:23;20.40;99.90
47514;DHT22;33951;51.988;5.910;2023-08-12T20:55:52;20.50;99.90
47514;DHT22;33951;51.988;5.910;2023-08-12T20:58:17;20.40;99.90
47514;DHT22;33951;51.988;5.910;2023-08-12T21:00:43;20.40;99.90
47514;DHT22;33951;51.988;5.910;2023-08-12T21:03:12;20.40;99.90
47514;DHT22;33951;51.988;5.910;2023-08-12T21:05:40;20.30;99.90
47514;DHT22;33951;51.988;5.910;2023-08-12T21:08:07;20.30;99.90
47514;DHT22;33951;51.988;5.910;2023-08-12T21:10:33;20.30;99.90
47514;DHT22;33951;51.988;5.910;2023-08-12T21:12:59;20.20;99.90
47514;DHT22;33951;51.988;5.910;2023-08-12T21:15:25;20.20;99.90
47514;DHT22;33951;51.988;5.910;2023-08-12T21:17:53;20.20;99.90
47514;DHT22;33951;51.988;5.910;2023-08-12T21:20:19;20.20;99.90
47514;DHT22;33951;51.988;5.910;2023-08-12T21:22:44;20.10;99.90
47514;DHT22;33951;51.988;5.910;2023-08-12T21:25:12;20.10;99.90
47514;DHT22;33951;51.988;5.910;2023-08-12T21:27:46;20.10;99.90
47514;DHT22;33951;51.988;5.910;2023-08-12T21:30:12;20.00;99.90
47514;DHT22;33951;51.988;5.910;2023-08-12T21:32:37;20.00;99.90
47514;DHT22;33951;51.988;5.910;2023-08-12T21:35:06;19.90;99.90
47514;DHT22;33951;51.988;5.910;2023-08-12T21:37:38;19.90;99.90
47514;DHT22;33951;51.988;5.910;2023-08-12T21:40:04;19.90;99.90
47514;DHT22;33951;51.988;5.910;2023-08-12T21:42:30;19.80;99.90
47514;DHT22;33951;51.988;5.910;2023-08-12T21:44:56;19.80;99.90
47514;DHT22;33951;51.988;5.910;2023-08-12T21:47:25;19.80;99.90
47514;DHT22;33951;51.988;5.910;2023-08-12T21:49:50;19.80;99.90
47514;DHT22;33951;51.988;5.910;2023-08-12T21:52:19;19.80;99.90
47514;DHT22;33951;51.988;5.910;2023-08-12T21:54:47;19.80;99.90
47514;DHT22;33951;51.988;5.910;2023-08-12T21:57:13;19.70;99.90
47514;DHT22;33951;51.988;5.910;2023-08-12T21:59:41;19.70;99.90
47514;DHT22;33951;51.988;5.910;2023-08-12T22:02:06;19.70;99.90
47514;DHT22;33951;51.988;5.910;2023-08-12T22:04:35;19.70;99.90
47514;DHT22;33951;51.988;5.910;2023-08-12T22:07:00;19.70;99.90
47514;DHT22;33951;51.988;5.910;2023-08-12T22:09:26;19.60;99.90
47514;DHT22;33951;51.988;5.910;2023-08-12T22:11:57;19.60;99.90
47514;DHT22;33951;51.988;5.910;2023-08-12T22:14:23;19.60;99.90
47514;DHT22;33951;51.988;5.910;2023-08-12T22:16:49;19.60;99.90
47514;DHT22;33951;51.988;5.910;2023-08-12T22:19:14;19.60;99.90
47514;DHT22;33951;51.988;5.910;2023-08-12T22:21:40;19.60;99.90
47514;DHT22;33951;51.988;5.910;2023-08-12T22:24:06;19.60;99.90
47514;DHT22;33951;51.988;5.910;2023-08-12T22:26:31;19.40;99.90
47514;DHT22;33951;51.988;5.910;2023-08-12T22:28:57;19.20;99.90
47514;DHT22;33951;51.988;5.910;2023-08-12T22:31:23;19.20;99.90
47514;DHT22;33951;51.988;5.910;2023-08-12T22:33:51;19.40;99.90
47514;DHT22;33951;51.988;5.910;2023-08-12T22:36:19;19.50;99.90
47514;DHT22;33951;51.988;5.910;2023-08-12T22:38:45;19.50;99.90
47514;DHT22;33951;51.988;5.910;2023-08-12T22:41:12;19.50;99.90
47514;DHT22;33951;51.988;5.910;2023-08-12T22:43:38;19.40;99.90
47514;DHT22;33951;51.988;5.910;2023-08-12T22:46:03;19.20;99.90
47514;DHT22;33951;51.988;5.910;2023-08-12T22:48:31;19.00;99.90
47514;DHT22;33951;51.988;5.910;2023-08-12T22:51:00;19.10;99.90
47514;DHT22;33951;51.988;5.910;2023-08-12T22:53:28;19.00;99.90
47514;DHT22;33951;51.988;5.910;2023-08-12T22:55:54;18.90;99.90
47514;DHT22;33951;51.988;5.910;2023-08-12T22:58:19;18.90;99.90
47514;DHT22;33951;51.988;5.910;2023-08-12T23:00:45;18.90;99.90
47514;DHT22;33951;51.988;5.910;2023-08-12T23:03:11;18.90;99.90
47514;DHT22;33951;51.988;5.910;2023-08-12T23:05:37;19.00;99.90
47514;DHT22;33951;51.988;5.910;2023-08-12T23:08:05;19.00;99.90
47514;DHT22;33951;51.988;5.910;2023-08-12T23:10:34;19.00;99.90
47514;DHT22;33951;51.988;5.910;2023-08-12T23:13:05;19.20;99.90
47514;DHT22;33951;51.988;5.910;2023-08-12T23:15:31;18.90;99.90
47514;DHT22;33951;51.988;5.910;2023-08-12T23:17:57;18.80;99.90
47514;DHT22;33951;51.988;5.910;2023-08-12T23:20:23;18.80;99.90
47514;DHT22;33951;51.988;5.910;2023-08-12T23:22:53;18.80;99.90
47514;DHT22;33951;51.988;5.910;2023-08-12T23:25:22;18.70;99.90
47514;DHT22;33951;51.988;5.910;2023-08-12T23:27:47;18.60;99.90
47514;DHT22;33951;51.988;5.910;2023-08-12T23:30:16;18.60;99.90
47514;DHT22;33951;51.988;5.910;2023-08-12T23:32:53;18.60;99.90
47514;DHT22;33951;51.988;5.910;2023-08-12T23:35:19;18.70;99.90
47514;DHT22;33951;51.988;5.910;2023-08-12T23:37:48;18.60;99.90
47514;DHT22;33951;51.988;5.910;2023-08-12T23:40:17;18.70;99.90
47514;DHT22;33951;51.988;5.910;2023-08-12T23:42:43;18.70;99.90
47514;DHT22;33951;51.988;5.910;2023-08-12T23:45:11;18.50;99.90
47514;DHT22;33951;51.988;5.910;2023-08-12T23:47:39;18.60;99.90
47514;DHT22;33951;51.988;5.910;2023-08-12T23:50:06;18.60;99.90
47514;DHT22;33951;51.988;5.910;2023-08-12T23:52:32;18.60;99.90
47514;DHT22;33951;51.988;5.910;2023-08-12T23:54:58;18.80;99.90
47514;DHT22;33951;51.988;5.910;2023-08-12T23:57:24;18.80;99.90
47514;DHT22;33951;51.988;5.910;2023-08-12T23:59:49;18.70;99.90
